Time;durP1;ratioP1;P1;durP2;ratioP2;P2;SDS_P1;SDS_P2;PMS_P1;PMS_P2;Temp;Humidity;BMP_temperature;BMP_pressure;BME280_temperature;BME280_humidity;BME280_pressure;Samples;Min_cycle;Max_cycle;Signal;HPM_P1;HPM_P2
2022/01/12 00:01:14;;;;;;;64.63;41.05;;;3.20;99.90;;;;;;4892738;28;90574;-79
2022/01/12 00:03:46;;;;;;;59.28;41.47;;;3.20;99.90;;;;;;4874730;28;88536;-81
2022/01/12 00:06:14;;;;;;;61.53;41.00;;;3.20;99.90;;;;;;4875248;28;87818;-79
2022/01/12 00:08:40;;;;;;;47.40;37.65;;;3.20;99.90;;;;;;4890479;28;88973;-79
2022/01/12 00:11:06;;;;;;;55.67;40.15;;;3.20;99.90;;;;;;4876321;28;89481;-79
2022/01/12 00:13:34;;;;;;;54.40;40.60;;;3.20;99.90;;;;;;4875545;28;88622;-78
2022/01/12 00:16:01;;;;;;;59.05;41.90;;;3.20;99.90;;;;;;4875309;28;88473;-79
2022/01/12 00:18:28;;;;;;;59.20;41.60;;;3.20;99.90;;;;;;4890374;28;91459;-80
2022/01/12 00:20:54;;;;;;;60.80;41.03;;;3.20;99.90;;;;;;4875181;28;90685;-80
2022/01/12 00:23:20;;;;;;;59.22;40.13;;;3.20;99.90;;;;;;4875256;28;88340;-80
2022/01/12 00:26:10;;;;;;;61.45;39.50;;;3.20;99.90;;;;;;4875181;28;87522;-81
2022/01/12 00:34:08;;;;;;;58.97;41.65;;;3.30;99.90;;;;;;4890979;28;87467;-79
2022/01/12 00:36:34;;;;;;;59.38;40.45;;;3.20;99.90;;;;;;4890391;28;87677;-79
2022/01/12 00:39:06;;;;;;;54.50;41.28;;;3.20;99.90;;;;;;4875342;28;91907;-80
2022/01/12 00:41:34;;;;;;;53.78;37.97;;;3.20;99.90;;;;;;4889948;28;89983;-79
2022/01/12 00:44:01;;;;;;;57.20;37.47;;;3.20;99.90;;;;;;4874847;28;87647;-79
2022/01/12 00:46:30;;;;;;;61.45;39.70;;;3.20;99.90;;;;;;4890130;28;88865;-80
2022/01/12 00:48:56;;;;;;;;;;;3.20;99.90;;;;;;4875670;28;89786;-79
2022/01/12 00:51:26;;;;;;;59.83;40.92;;;3.20;99.90;;;;;;4875701;28;90279;-79
2022/01/12 00:53:53;;;;;;;62.30;39.75;;;3.20;99.90;;;;;;4874687;28;88029;-79
2022/01/12 00:56:19;;;;;;;62.63;39.47;;;3.20;99.90;;;;;;4875207;28;88935;-79
2022/01/12 00:58:44;;;;;;;64.60;39.97;;;3.20;99.90;;;;;;4890839;28;91118;-79
2022/01/12 01:01:10;;;;;;;64.40;39.80;;;3.20;99.90;;;;;;4874292;28;91783;-78
2022/01/12 01:03:36;;;;;;;57.30;40.95;;;3.20;99.90;;;;;;4874865;28;88028;-79
2022/01/12 01:06:07;;;;;;;58.38;38.67;;;3.20;99.90;;;;;;4891542;28;88395;-79
2022/01/12 01:08:33;;;;;;;69.75;41.50;;;3.20;99.90;;;;;;4889784;28;90987;-80
2022/01/12 01:10:59;;;;;;;66.88;40.88;;;3.20;99.90;;;;;;4890585;28;90075;-79
2022/01/12 01:13:33;;;;;;;59.78;42.53;;;3.20;99.90;;;;;;4890592;28;88423;-80
2022/01/12 01:16:08;;;;;;;70.50;40.75;;;3.30;99.90;;;;;;4874526;28;87815;-78
2022/01/12 01:26:49;;;;;;;70.30;39.47;;;3.30;99.90;;;;;;4895033;28;87612;-79
2022/01/12 01:29:15;;;;;;;75.63;41.08;;;3.30;99.90;;;;;;4894582;28;87617;-80
2022/01/12 01:31:43;;;;;;;66.85;42.55;;;3.30;99.90;;;;;;4908159;28;90448;-79
2022/01/12 01:34:11;;;;;;;76.60;41.55;;;3.30;99.90;;;;;;4878097;28;87951;-79
2022/01/12 01:36:51;;;;;;;67.18;40.42;;;3.30;99.90;;;;;;4893461;28;87790;-79
2022/01/12 01:39:21;;;;;;;59.53;38.05;;;3.30;99.90;;;;;;4893790;28;89155;-79
2022/01/12 01:41:54;;;;;;;63.20;39.63;;;3.30;99.90;;;;;;4877705;28;89967;-79
2022/01/12 01:55:17;;;;;;;57.47;36.55;;;3.30;99.90;;;;;;4893524;28;88142;-80
2022/01/12 01:57:43;;;;;;;67.88;39.35;;;3.30;99.90;;;;;;4893065;28;87687;-80
2022/01/12 02:00:16;;;;;;;62.85;38.25;;;3.30;99.90;;;;;;4877338;28;91237;-79
2022/01/12 02:02:44;;;;;;;59.53;39.15;;;3.30;99.90;;;;;;4893591;28;88775;-79
2022/01/12 02:05:10;;;;;;;59.70;38.83;;;3.30;99.90;;;;;;4877072;28;88012;-80
2022/01/12 02:07:35;;;;;;;53.83;37.85;;;3.30;99.90;;;;;;4892786;28;87607;-80
2022/01/12 02:10:04;;;;;;;64.00;37.92;;;3.30;99.90;;;;;;4877671;28;90002;-80
2022/01/12 02:12:30;;;;;;;67.40;38.50;;;3.30;99.90;;;;;;4876446;28;90710;-79
2022/01/12 02:14:57;;;;;;;66.22;40.47;;;3.30;99.90;;;;;;4892925;28;88489;-79
2022/01/12 02:17:40;;;;;;;68.13;40.83;;;3.30;99.90;;;;;;4877114;28;88518;-80
2022/01/12 02:36:25;;;;;;;68.30;40.50;;;3.30;99.90;;;;;;4892158;28;87521;-80
2022/01/12 02:41:38;;;;;;;67.70;39.10;;;3.40;99.90;;;;;;4892553;28;91387;-81
2022/01/12 02:54:44;;;;;;;58.20;41.13;;;3.40;99.90;;;;;;4892366;28;89800;-80
2022/01/12 02:57:10;;;;;;;84.57;43.72;;;3.40;99.90;;;;;;4876883;28;88217;-80
2022/01/12 02:59:36;;;;;;;79.50;43.13;;;3.40;99.90;;;;;;4891852;28;88025;-80
2022/01/12 03:02:22;;;;;;;80.15;45.95;;;3.50;99.90;;;;;;4891969;28;91393;-80
2022/01/12 03:05:11;;;;;;;86.15;45.92;;;3.50;99.90;;;;;;4891224;28;88770;-79
2022/01/12 03:07:37;;;;;;;107.18;49.22;;;3.60;99.90;;;;;;4892092;28;88658;-79
2022/01/12 03:10:05;;;;;;;124.88;48.75;;;3.60;99.90;;;;;;4884054;28;87767;-80
2022/01/12 03:12:31;;;;;;;136.57;54.00;;;3.50;99.90;;;;;;4903219;28;91273;-81
2022/01/12 03:14:57;;;;;;;152.75;53.28;;;3.50;99.90;;;;;;4885970;28;89168;-79
2022/01/12 03:17:22;;;;;;;124.95;52.38;;;3.50;99.90;;;;;;4887207;28;87572;-81
2022/01/12 03:19:48;;;;;;;187.23;58.88;;;3.50;99.90;;;;;;4902179;28;88193;-80
2022/01/12 03:22:16;;;;;;;110.00;47.85;;;3.50;99.90;;;;;;4886784;28;87771;-80
2022/01/12 03:24:42;;;;;;;180.77;57.35;;;3.60;99.90;;;;;;4883379;28;90817;-79
2022/01/12 03:27:12;;;;;;;138.63;52.60;;;3.50;99.90;;;;;;4880087;28;88079;-81
2022/01/12 03:29:41;;;;;;;103.68;47.50;;;3.50;99.90;;;;;;4881912;28;88058;-79
2022/01/12 03:32:11;;;;;;;177.25;60.80;;;3.60;99.90;;;;;;4891030;28;90949;-81
2022/01/12 03:34:43;;;;;;;94.43;50.58;;;3.60;99.90;;;;;;4875629;28;91364;-80
2022/01/12 03:37:27;;;;;;;103.90;53.15;;;3.60;99.90;;;;;;4876369;28;87598;-80
2022/01/12 03:39:53;;;;;;;97.82;47.67;;;3.60;99.90;;;;;;4892042;28;88539;-79
2022/01/12 03:42:19;;;;;;;144.25;54.28;;;3.60;99.90;;;;;;4891390;28;91353;-80
2022/01/12 03:44:47;;;;;;;150.27;54.83;;;3.60;99.90;;;;;;4892088;28;90326;-80
2022/01/12 03:47:12;;;;;;;112.93;50.33;;;3.60;99.90;;;;;;4892117;28;87974;-80
2022/01/12 03:49:43;;;;;;;93.88;48.92;;;3.60;99.90;;;;;;4875638;28;88617;-81
2022/01/12 03:52:08;;;;;;;103.72;48.55;;;3.60;99.90;;;;;;4874862;28;91038;-80
2022/01/12 03:54:34;;;;;;;105.13;50.38;;;3.60;99.90;;;;;;4875253;28;90561;-80
2022/01/12 03:57:00;;;;;;;136.70;54.47;;;3.60;99.90;;;;;;4892770;28;87948;-81
2022/01/12 03:59:26;;;;;;;129.30;54.20;;;3.60;99.90;;;;;;4891161;28;88639;-80
2022/01/12 04:01:51;;;;;;;134.43;53.92;;;3.60;99.90;;;;;;4891724;28;91132;-81
2022/01/12 04:04:30;;;;;;;169.05;57.50;;;3.60;99.90;;;;;;4875307;28;88871;-81
2022/01/12 04:09:40;;;;;;;109.75;51.80;;;3.60;99.90;;;;;;4893008;28;87728;-81
2022/01/12 04:12:06;;;;;;;105.90;51.92;;;3.60;99.90;;;;;;4875229;28;88480;-80
2022/01/12 04:14:31;;;;;;;112.82;53.42;;;3.60;99.90;;;;;;4874954;28;90521;-79
2022/01/12 04:16:57;;;;;;;129.40;53.00;;;3.60;99.90;;;;;;4875334;28;88210;-81
2022/01/12 04:19:27;;;;;;;92.45;50.97;;;3.70;99.90;;;;;;4875021;28;87884;-81
2022/01/12 04:21:53;;;;;;;104.43;50.35;;;3.60;99.90;;;;;;4874739;28;89986;-81
2022/01/12 04:24:18;;;;;;;89.50;49.50;;;3.70;99.90;;;;;;4875235;28;88593;-80
2022/01/12 04:26:44;;;;;;;125.47;54.60;;;3.60;99.90;;;;;;4875241;28;87985;-80
2022/01/12 04:29:10;;;;;;;82.25;46.22;;;3.60;99.90;;;;;;4891225;28;88029;-80
2022/01/12 04:31:37;;;;;;;110.30;52.35;;;3.60;99.90;;;;;;4891054;28;90959;-81
2022/01/12 04:34:06;;;;;;;134.73;55.05;;;3.60;99.90;;;;;;4890057;28;90313;-80
2022/01/12 04:36:32;;;;;;;117.90;53.63;;;3.60;99.90;;;;;;4890954;28;88033;-80
2022/01/12 04:38:58;;;;;;;107.82;51.22;;;3.60;99.90;;;;;;4891051;28;88082;-80
2022/01/12 04:41:25;;;;;;;90.93;48.58;;;3.60;99.90;;;;;;4891717;28;90919;-81
2022/01/12 04:43:52;;;;;;;91.18;47.25;;;3.60;99.90;;;;;;4874402;28;89101;-79
2022/01/12 04:46:26;;;;;;;88.85;47.30;;;3.70;99.90;;;;;;4891103;28;88312;-80
2022/01/12 04:48:56;;;;;;;82.78;47.75;;;3.60;99.90;;;;;;4874618;28;87864;-81
2022/01/12 04:51:23;;;;;;;88.55;45.90;;;3.60;99.90;;;;;;4873942;28;91064;-80
2022/01/12 04:53:50;;;;;;;77.43;46.08;;;3.60;99.90;;;;;;4875094;28;88997;-80
2022/01/12 04:56:16;;;;;;;105.70;50.38;;;3.60;99.90;;;;;;4894629;28;88300;-80
2022/01/12 04:58:42;;;;;;;97.65;48.83;;;3.60;99.90;;;;;;4893807;28;88132;-80
2022/01/12 05:01:11;;;;;;;102.53;48.42;;;3.60;99.90;;;;;;4878038;28;91418;-80
2022/01/12 05:06:44;;;;;;;142.13;53.50;;;3.50;99.90;;;;;;4894685;28;87871;-80
2022/01/12 05:14:44;;;;;;;115.15;45.08;;;3.50;99.90;;;;;;4894430;28;89808;-81
2022/01/12 05:17:09;;;;;;;125.18;47.45;;;3.40;99.90;;;;;;4894534;28;88411;-81
2022/01/12 05:19:35;;;;;;;222.43;59.53;;;3.40;99.90;;;;;;4893227;28;87898;-80
2022/01/12 05:22:00;;;;;;;250.27;57.33;;;3.40;99.90;;;;;;4878110;28;91588;-79
2022/01/12 05:24:26;;;;;;;208.07;54.38;;;3.40;99.90;;;;;;4893057;28;90186;-81
2022/01/12 05:26:52;;;;;;;306.40;60.65;;;3.40;99.90;;;;;;4878220;28;87935;-80
2022/01/12 05:29:17;;;;;;;343.38;65.13;;;3.40;99.90;;;;;;4893809;28;87853;-80
2022/01/12 05:31:43;;;;;;;298.30;61.20;;;3.40;99.90;;;;;;4876949;28;89943;-80
2022/01/12 05:34:08;;;;;;;348.33;67.57;;;3.40;99.90;;;;;;4894354;28;88973;-80
2022/01/12 05:36:34;;;;;;;273.25;56.70;;;3.30;99.90;;;;;;4894980;28;88256;-81
2022/01/12 05:39:00;;;;;;;330.77;62.60;;;3.30;99.90;;;;;;4892740;28;87679;-80
2022/01/12 05:41:26;;;;;;;316.40;59.65;;;3.30;99.90;;;;;;4894550;28;91501;-82
2022/01/12 05:43:57;;;;;;;297.38;57.15;;;3.30;99.90;;;;;;4893349;28;89521;-80
2022/01/12 05:46:26;;;;;;;181.85;46.45;;;3.20;99.90;;;;;;4893672;28;88242;-81
2022/01/12 05:51:37;;;;;;;150.73;45.28;;;3.20;99.90;;;;;;4893727;28;91158;-80
2022/01/12 05:54:03;;;;;;;241.40;51.72;;;3.20;99.90;;;;;;4892162;28;90713;-80
2022/01/12 05:56:29;;;;;;;177.20;43.65;;;3.10;99.90;;;;;;4892792;28;87517;-79
2022/01/12 05:58:55;;;;;;;192.40;49.42;;;3.10;99.90;;;;;;4877526;28;88705;-80
2022/01/12 06:01:21;;;;;;;126.13;38.15;;;3.10;99.90;;;;;;4892599;28;87789;-80
2022/01/12 06:03:46;;;;;;;124.60;39.83;;;3.10;99.90;;;;;;4892812;28;88376;-80
2022/01/12 06:06:12;;;;;;;113.72;41.97;;;3.10;99.90;;;;;;4876962;28;88230;-80
2022/01/12 06:08:38;;;;;;;131.75;44.75;;;3.10;99.90;;;;;;4893420;28;87639;-80
2022/01/12 06:11:04;;;;;;;90.43;39.10;;;3.10;99.90;;;;;;4877131;28;90640;-80
2022/01/12 06:13:30;;;;;;;65.43;35.35;;;3.10;99.90;;;;;;4877074;28;89962;-80
2022/01/12 06:15:55;;;;;;;121.65;40.63;;;3.10;99.90;;;;;;4892601;28;88692;-81
2022/01/12 06:18:21;;;;;;;71.05;35.10;;;3.10;99.90;;;;;;4892739;28;87990;-78
2022/01/12 06:20:47;;;;;;;90.30;36.92;;;3.10;99.90;;;;;;4892766;28;91344;-78
2022/01/12 06:23:12;;;;;;;65.35;35.15;;;3.10;99.90;;;;;;4893448;28;88891;-78
2022/01/12 06:25:38;;;;;;;97.78;36.55;;;3.10;99.90;;;;;;4876929;28;88314;-78
2022/01/12 06:28:36;;;;;;;89.53;38.67;;;3.10;99.90;;;;;;4892811;28;88017;-80
2022/01/12 06:31:17;;;;;;;79.30;37.17;;;3.00;99.90;;;;;;4892244;28;91147;-80
2022/01/12 06:33:49;;;;;;;72.30;38.03;;;3.00;99.90;;;;;;4876342;28;90632;-81
2022/01/12 06:36:20;;;;;;;81.07;38.80;;;3.00;99.90;;;;;;4876503;28;88653;-80
2022/01/12 06:38:46;;;;;;;62.63;38.47;;;3.00;99.90;;;;;;4900417;28;87753;-81
2022/01/12 06:41:13;;;;;;;67.07;35.92;;;3.00;99.90;;;;;;4895399;28;89574;-80
2022/01/12 06:43:39;;;;;;;89.18;39.63;;;3.00;99.90;;;;;;4895773;28;90535;-80
2022/01/12 06:46:05;;;;;;;81.13;39.75;;;3.00;99.90;;;;;;4911945;28;88137;-81
2022/01/12 06:48:32;;;;;;;67.60;37.13;;;3.00;99.90;;;;;;4896140;28;87708;-81
2022/01/12 06:50:58;;;;;;;70.75;37.53;;;2.90;99.90;;;;;;4894776;28;90748;-81
2022/01/12 06:53:23;;;;;;;56.30;35.05;;;3.00;99.90;;;;;;4911455;28;90458;-81
2022/01/12 06:55:49;;;;;;;63.65;39.50;;;2.90;99.90;;;;;;4846251;28;88561;-80
2022/01/12 06:58:15;;;;;;;66.88;36.65;;;2.90;99.90;;;;;;4873266;28;87981;-81
2022/01/12 07:00:41;;;;;;;75.40;40.35;;;2.90;99.90;;;;;;4872455;28;91035;-80
2022/01/12 07:03:07;;;;;;;66.57;38.60;;;2.90;99.90;;;;;;4857343;28;90635;-80
2022/01/12 07:05:32;;;;;;;70.93;37.10;;;2.90;99.90;;;;;;4872648;28;87613;-79
2022/01/12 07:07:58;;;;;;;75.78;41.60;;;2.90;99.90;;;;;;4872421;28;88140;-83
2022/01/12 07:10:24;;;;;;;74.15;40.95;;;2.90;99.90;;;;;;4890251;28;90924;-80
2022/01/12 07:12:50;;;;;;;65.03;38.05;;;3.00;99.90;;;;;;4875028;28;91182;-81
2022/01/12 07:15:16;;;;;;;75.40;41.05;;;3.00;99.90;;;;;;4890987;28;88342;-80
2022/01/12 07:17:42;;;;;;;68.43;38.08;;;3.00;99.90;;;;;;4874846;28;88386;-79
2022/01/12 07:20:12;;;;;;;70.25;39.92;;;3.10;99.90;;;;;;4874583;28;88426;-79
2022/01/12 07:22:38;;;;;;;71.00;39.85;;;3.10;99.90;;;;;;4890359;28;90071;-78
2022/01/12 07:25:04;;;;;;;61.72;40.60;;;3.10;99.90;;;;;;4891165;28;87603;-79
2022/01/12 07:27:31;;;;;;;61.80;37.20;;;3.10;99.90;;;;;;4890940;28;88165;-78
2022/01/12 07:30:00;;;;;;;67.93;41.55;;;3.20;99.90;;;;;;4891737;28;91752;-79
2022/01/12 07:32:27;;;;;;;83.85;42.95;;;3.20;99.90;;;;;;4874998;28;88345;-79
2022/01/12 07:34:53;;;;;;;71.35;40.75;;;3.20;99.90;;;;;;4874958;28;87759;-78
2022/01/12 07:37:28;;;;;;;73.35;39.22;;;3.20;99.90;;;;;;4892356;28;88493;-78
2022/01/12 07:39:56;;;;;;;62.03;36.45;;;3.20;99.90;;;;;;4874638;28;89501;-79
2022/01/12 07:42:25;;;;;;;75.63;40.53;;;3.20;99.90;;;;;;4875010;28;90152;-80
2022/01/12 07:44:59;;;;;;;60.83;36.63;;;3.20;99.90;;;;;;4874824;28;88051;-79
2022/01/12 07:47:29;;;;;;;64.60;39.47;;;3.20;99.90;;;;;;4874630;28;87901;-80
2022/01/12 07:50:01;;;;;;;64.40;37.55;;;3.20;99.90;;;;;;4874704;28;91141;-81
2022/01/12 07:52:30;;;;;;;66.57;39.15;;;3.10;99.90;;;;;;4889313;28;88915;-80
2022/01/12 07:58:07;;;;;;;69.82;37.63;;;3.10;99.90;;;;;;4889476;28;88665;-81
2022/01/12 08:00:47;;;;;;;66.68;36.42;;;3.10;99.90;;;;;;4870942;28;88388;-80
2022/01/12 08:03:42;;;;;;;58.35;35.22;;;3.10;99.90;;;;;;4855256;28;88306;-80
2022/01/12 08:06:31;;;;;;;57.17;32.13;;;3.10;99.90;;;;;;4870713;28;89030;-80
2022/01/12 08:08:58;;;;;;;74.97;36.17;;;3.00;99.90;;;;;;4870985;28;88207;-80
2022/01/12 08:11:53;;;;;;;60.40;35.75;;;3.00;99.90;;;;;;4871332;28;90721;-81
2022/01/12 08:17:37;;;;;;;56.28;32.63;;;3.00;99.90;;;;;;4872257;28;88012;-81
2022/01/12 08:20:25;;;;;;;52.33;31.10;;;3.10;99.90;;;;;;4867945;28;88235;-82
2022/01/12 08:23:19;;;;;;;59.38;32.55;;;3.00;99.90;;;;;;4856640;28;90716;-82
2022/01/12 08:26:09;;;;;;;69.47;33.10;;;3.00;99.90;;;;;;4872112;28;90512;-81
2022/01/12 08:28:34;;;;;;;62.50;32.10;;;3.00;99.90;;;;;;4871705;28;87787;-81
2022/01/12 08:31:50;;;;;;;62.17;32.88;;;3.10;99.90;;;;;;4872339;28;88163;-81
2022/01/12 08:34:27;;;;;;;57.58;32.88;;;3.10;99.90;;;;;;4871421;28;88654;-80
2022/01/12 08:36:58;;;;;;;61.35;31.25;;;3.10;99.90;;;;;;4871683;28;88498;-80
2022/01/12 08:39:35;;;;;;;63.25;32.97;;;3.10;99.90;;;;;;4871553;28;88298;-80
2022/01/12 08:42:09;;;;;;;62.78;32.70;;;3.10;99.90;;;;;;4872251;28;88183;-80
2022/01/12 08:44:38;;;;;;;62.25;30.80;;;3.20;99.90;;;;;;4872066;28;87930;-80
2022/01/12 08:47:03;;;;;;;;;;;3.20;99.90;;;;;;4872367;28;91206;-81
2022/01/12 08:49:33;;;;;;;53.45;30.45;;;3.20;99.90;;;;;;4873605;28;88364;-80
2022/01/12 08:52:04;;;;;;;77.15;34.03;;;3.20;99.90;;;;;;4871272;28;88440;-81
2022/01/12 08:54:31;;;;;;;81.28;30.63;;;3.30;99.90;;;;;;4871316;28;88797;-79
2022/01/12 08:57:06;;;;;;;77.93;33.72;;;3.40;99.90;;;;;;4871736;28;87549;-81
2022/01/12 08:59:46;;;;;;;78.93;31.33;;;3.30;99.90;;;;;;4873554;28;88194;-81
2022/01/12 09:02:15;;;;;;;82.55;30.85;;;3.40;99.90;;;;;;4871873;28;87715;-80
2022/01/12 09:05:10;;;;;;;110.80;32.58;;;3.40;99.90;;;;;;4891058;28;90744;-81
2022/01/12 09:07:59;;;;;;;;;;;;;;;;;;;;;
2022/01/12 09:10:37;;;;;;;52.03;23.55;;;3.40;99.90;;;;;;4876986;28;87571;-80
2022/01/12 09:13:17;;;;;;;63.83;25.83;;;3.50;99.90;;;;;;4878532;28;87776;-80
2022/01/12 09:16:21;;;;;;;53.13;24.42;;;3.50;99.90;;;;;;4861242;28;91325;-80
2022/01/12 09:18:49;;;;;;;65.65;24.08;;;3.50;99.90;;;;;;4877956;28;90974;-79
2022/01/12 09:21:17;;;;;;;85.35;25.85;;;3.50;99.90;;;;;;4878116;28;88094;-80
2022/01/12 09:23:44;;;;;;;68.28;25.80;;;3.50;99.90;;;;;;4877444;28;87650;-81
2022/01/12 09:26:20;;;;;;;45.83;24.83;;;3.50;99.90;;;;;;4861890;28;91968;-80
2022/01/12 09:31:46;;;;;;;54.05;25.33;;;3.60;99.90;;;;;;4877199;28;87560;-81
2022/01/12 09:37:04;;;;;;;55.22;24.45;;;3.70;99.90;;;;;;4876453;28;88739;-81
2022/01/12 09:39:50;;;;;;;46.83;23.95;;;3.80;99.90;;;;;;4878374;28;91244;-81
2022/01/12 09:42:27;;;;;;;;;;;;;;;;;;;;;
2022/01/12 09:45:14;;;;;;;;;;;;;;;;;;;;;
2022/01/12 09:48:01;;;;;;;44.92;25.50;;;3.90;99.90;;;;;;4881217;28;89579;-80
2022/01/12 09:50:41;;;;;;;52.95;24.83;;;4.00;99.90;;;;;;4880598;28;88837;-81
2022/01/12 09:53:43;;;;;;;;;;;;;;;;;;;;;
2022/01/12 09:56:54;;;;;;;45.10;25.15;;;4.10;99.90;;;;;;4880437;28;87797;-80
2022/01/12 09:59:41;;;;;;;44.17;22.43;;;4.10;99.90;;;;;;4898924;28;90930;-81
2022/01/12 10:02:27;;;;;;;44.03;25.10;;;4.20;99.90;;;;;;4868666;28;87604;-80
2022/01/12 10:08:22;;;;;;;60.53;25.35;;;4.40;99.90;;;;;;4879425;28;87380;-80
2022/01/12 10:11:26;;;;;;;50.95;25.38;;;4.40;99.90;;;;;;4896564;28;91011;-80
2022/01/12 10:14:07;;;;;;;49.95;25.35;;;4.50;99.90;;;;;;4847244;29;88303;-80
2022/01/12 10:16:50;;;;;;;57.25;24.90;;;4.50;99.90;;;;;;4879830;28;87835;-81
2022/01/12 10:19:37;;;;;;;49.63;23.08;;;4.60;99.90;;;;;;4881343;28;87713;-80
2022/01/12 10:22:51;;;;;;;45.60;23.20;;;4.60;99.90;;;;;;4881263;28;88350;-79
2022/01/12 10:25:41;;;;;;;;;;;;;;;;;;;;;
2022/01/12 10:28:36;;;;;;;52.85;21.45;;;4.70;99.90;;;;;;4880546;28;87667;-81
2022/01/12 10:31:07;;;;;;;50.97;21.00;;;4.80;99.90;;;;;;4864059;28;88515;-81
2022/01/12 10:33:41;;;;;;;44.58;18.90;;;4.80;99.90;;;;;;4881802;28;89905;-82
2022/01/12 10:36:26;;;;;;;;;;;;;;;;;;;;;
2022/01/12 10:39:32;;;;;;;38.17;16.50;;;5.00;99.90;;;;;;4881592;28;87860;-80
2022/01/12 10:43:11;;;;;;;;;;;;;;;;;;;;;
2022/01/12 10:45:30;;;;;;;33.47;14.55;;;5.10;99.90;;;;;;4880478;28;87692;-79
2022/01/12 10:48:45;;;;;;;;;;;;;;;;;;;;;
2022/01/12 10:51:45;;;;;;;;;;;;;;;;;;;;;
2022/01/12 10:54:33;;;;;;;37.05;15.77;;;5.20;99.90;;;;;;4881597;28;87724;-81
2022/01/12 10:57:40;;;;;;;42.38;17.27;;;5.30;99.90;;;;;;4865714;28;88447;-81
2022/01/12 11:00:18;;;;;;;40.15;15.98;;;5.30;99.90;;;;;;4857286;28;90461;-79
2022/01/12 11:03:06;;;;;;;31.77;14.75;;;5.30;99.90;;;;;;4881558;28;87970;-82
2022/01/12 11:05:39;;;;;;;30.70;14.32;;;5.30;99.90;;;;;;4883311;28;87876;-82
2022/01/12 11:08:10;;;;;;;38.38;14.05;;;5.40;99.90;;;;;;4883453;28;88346;-81
2022/01/12 11:10:39;;;;;;;32.50;13.80;;;5.30;99.90;;;;;;4883643;28;89139;-81
2022/01/12 11:13:12;;;;;;;29.38;15.05;;;5.40;99.90;;;;;;4899781;28;87546;-80
2022/01/12 11:15:38;;;;;;;38.72;12.80;;;5.30;99.90;;;;;;4884729;28;87697;-82
2022/01/12 11:18:07;;;;;;;28.55;11.80;;;5.30;99.90;;;;;;4884280;28;88714;-80
2022/01/12 11:21:10;;;;;;;;;;;;;;;;;;;;;
2022/01/12 11:24:25;;;;;;;28.17;13.13;;;5.40;99.90;;;;;;4886135;28;88011;-81
2022/01/12 11:27:22;;;;;;;29.42;11.73;;;5.40;99.90;;;;;;4886390;28;87557;-81
2022/01/12 11:29:52;;;;;;;23.37;12.47;;;5.40;99.90;;;;;;4870401;28;90002;-84
2022/01/12 11:32:51;;;;;;;;;;;;;;;;;;;;;
2022/01/12 11:36:08;;;;;;;22.10;10.75;;;5.40;99.90;;;;;;4892305;28;87537;-82
2022/01/12 11:38:38;;;;;;;40.92;14.20;;;5.50;99.90;;;;;;4895194;28;87701;-81
2022/01/12 11:44:23;;;;;;;;;;;;;;;;;;;;;
2022/01/12 11:53:20;;;;;;;40.38;13.02;;;5.70;99.90;;;;;;4902882;28;87181;-81
2022/01/12 11:55:55;;;;;;;39.83;12.57;;;5.60;99.90;;;;;;4903091;28;87349;-81
2022/01/12 11:59:11;;;;;;;33.10;12.32;;;5.70;99.90;;;;;;4918344;28;87207;-82
2022/01/12 12:02:29;;;;;;;;;;;;;;;;;;;;;
2022/01/12 12:05:03;;;;;;;36.53;13.07;;;5.60;99.90;;;;;;4901990;28;89476;-79
2022/01/12 12:07:46;;;;;;;22.15;11.40;;;5.50;99.90;;;;;;4917144;28;88607;-78
2022/01/12 12:11:08;;;;;;;27.50;11.05;;;5.50;99.90;;;;;;4902823;28;87126;-79
2022/01/12 12:14:03;;;;;;;31.92;11.45;;;5.60;99.90;;;;;;4903479;28;86841;-78
2022/01/12 12:16:35;;;;;;;28.27;11.15;;;5.60;99.90;;;;;;4903582;28;90212;-78
2022/01/12 12:19:08;;;;;;;27.15;12.80;;;5.50;99.90;;;;;;4902959;28;89294;-81
2022/01/12 12:21:35;;;;;;;28.48;13.13;;;5.60;99.90;;;;;;4903671;28;86617;-79
2022/01/12 12:24:16;;;;;;;30.98;12.02;;;5.60;99.90;;;;;;4904132;28;86701;-79
2022/01/12 12:26:44;;;;;;;26.77;12.63;;;5.70;99.90;;;;;;4918525;28;89417;-80
2022/01/12 12:32:43;;;;;;;27.48;12.55;;;5.80;99.90;;;;;;4896319;28;89031;-80
2022/01/12 12:35:10;;;;;;;39.50;13.35;;;5.90;99.90;;;;;;4885424;28;87011;-78
2022/01/12 12:37:42;;;;;;;25.13;12.00;;;6.00;99.90;;;;;;4901809;28;90125;-78
2022/01/12 12:40:16;;;;;;;31.65;13.32;;;5.90;99.90;;;;;;4902784;28;87142;-79
2022/01/12 12:42:45;;;;;;;35.17;12.57;;;6.00;99.90;;;;;;4902986;28;87851;-79
2022/01/12 12:45:21;;;;;;;30.90;12.52;;;6.00;99.90;;;;;;4903252;28;87215;-80
2022/01/12 12:48:06;;;;;;;;;;;;;;;;;;;;;
2022/01/12 12:51:08;;;;;;;32.58;13.90;;;6.00;99.90;;;;;;4901964;28;87801;-78
2022/01/12 12:53:43;;;;;;;;;;;6.00;99.90;;;;;;4917825;28;87094;-80
2022/01/12 12:56:27;;;;;;;25.38;10.35;;;6.00;99.90;;;;;;4905488;28;87590;-80
2022/01/12 12:59:26;;;;;;;17.95;11.30;;;6.00;99.90;;;;;;4903259;28;88848;-79
2022/01/12 13:02:46;;;;;;;;;;;;;;;;;;;;;
2022/01/12 13:05:29;;;;;;;22.08;11.13;;;5.90;99.90;;;;;;4899819;28;87289;-78
2022/01/12 13:08:01;;;;;;;24.20;12.00;;;5.80;99.90;;;;;;4918449;28;87449;-81
2022/01/12 13:11:01;;;;;;;21.23;12.07;;;5.80;99.90;;;;;;4899678;28;90182;-80
2022/01/12 13:13:34;;;;;;;20.80;11.85;;;5.80;99.90;;;;;;4899365;28;89488;-81
2022/01/12 13:16:17;;;;;;;;;;;;;;;;;;;;;
2022/01/12 13:19:07;;;;;;;22.35;12.15;;;5.90;99.90;;;;;;4903197;28;88623;-80
2022/01/12 13:21:41;;;;;;;24.52;12.23;;;5.80;99.90;;;;;;4918601;28;89522;-79
2022/01/12 13:24:10;;;;;;;25.95;12.48;;;5.80;99.90;;;;;;4939871;28;89424;-79
2022/01/12 13:26:42;;;;;;;35.95;13.68;;;5.90;99.90;;;;;;4924905;28;87417;-80
2022/01/12 13:29:31;;;;;;;26.73;12.93;;;5.90;99.90;;;;;;4906100;28;87411;-80
2022/01/12 13:32:38;;;;;;;30.60;13.77;;;5.80;99.90;;;;;;4917282;28;89395;-79
2022/01/12 13:35:38;;;;;;;32.60;14.40;;;5.90;99.90;;;;;;4890645;28;87038;-79
2022/01/12 13:38:15;;;;;;;;;;;;;;;;;;;;;
2022/01/12 13:41:12;;;;;;;30.33;14.30;;;5.90;99.90;;;;;;4887051;28;87690;-79
2022/01/12 13:43:43;;;;;;;31.70;13.30;;;6.00;99.90;;;;;;4901226;28;88033;-79
2022/01/12 13:46:16;;;;;;;35.60;15.25;;;5.90;99.90;;;;;;4922967;28;87875;-80
2022/01/12 13:52:06;;;;;;;32.08;15.07;;;5.90;99.90;;;;;;4923350;28;87657;-78
2022/01/12 13:54:58;;;;;;;;;;;;;;;;;;;;;
2022/01/12 13:57:29;;;;;;;34.83;15.27;;;6.00;99.90;;;;;;4916116;28;90998;-79
2022/01/12 13:59:55;;;;;;;41.55;15.57;;;6.00;99.90;;;;;;4896364;28;87854;-79
2022/01/12 14:02:32;;;;;;;32.17;14.35;;;6.00;99.90;;;;;;4894029;28;88907;-81
2022/01/12 14:05:52;;;;;;;;;;;;;;;;;;;;;
2022/01/12 14:08:40;;;;;;;30.25;15.60;;;6.00;99.90;;;;;;4884215;28;88775;-86
2022/01/12 14:11:09;;;;;;;31.85;16.67;;;6.00;99.90;;;;;;4903015;28;87608;-85
2022/01/12 14:13:40;;;;;;;32.78;16.60;;;6.00;99.90;;;;;;4901721;28;88684;-79
2022/01/12 14:19:49;;;;;;;;;;;;;;;;;;;;;
2022/01/12 14:22:28;;;;;;;23.27;14.83;;;6.00;99.90;;;;;;4900444;28;89419;-80
2022/01/12 14:25:21;;;;;;;35.80;14.63;;;5.90;99.90;;;;;;4900107;28;87486;-82
2022/01/12 14:28:07;;;;;;;29.38;16.23;;;5.90;99.90;;;;;;4898727;28;91463;-80
2022/01/12 14:30:46;;;;;;;29.88;14.57;;;5.80;99.90;;;;;;4886392;28;88319;-82
2022/01/12 14:33:22;;;;;;;29.55;14.65;;;5.70;99.90;;;;;;4882952;28;87953;-79
2022/01/12 14:35:51;;;;;;;20.23;11.65;;;5.70;99.90;;;;;;4883755;28;87715;-81
2022/01/12 14:38:26;;;;;;;35.40;15.35;;;5.70;99.90;;;;;;4883913;28;91320;-82
2022/01/12 14:40:57;;;;;;;25.02;16.55;;;5.60;99.90;;;;;;4883418;28;90933;-80
2022/01/12 14:43:32;;;;;;;31.52;16.63;;;5.50;99.90;;;;;;4899708;28;88342;-81
2022/01/12 14:46:03;;;;;;;27.38;14.82;;;5.50;99.90;;;;;;4885358;28;88091;-80
2022/01/12 14:49:19;;;;;;;32.33;14.57;;;5.50;99.90;;;;;;4844160;28;89574;-80
2022/01/12 14:51:36;;;;;;;23.77;13.25;;;5.50;99.90;;;;;;4842823;28;89010;-82
2022/01/12 14:54:15;;;;;;;25.60;16.70;;;5.30;99.90;;;;;;4841969;29;88180;-81
2022/01/12 14:57:09;;;;;;;26.60;15.05;;;5.30;99.90;;;;;;4858908;28;87815;-81
2022/01/12 14:59:53;;;;;;;27.92;13.80;;;5.20;99.90;;;;;;4859852;28;89048;-82
2022/01/12 15:02:27;;;;;;;19.65;15.13;;;5.20;99.90;;;;;;4840670;29;88474;-81
2022/01/12 15:05:05;;;;;;;;;;;;;;;;;;;;;
2022/01/12 15:07:31;;;;;;;33.25;16.50;;;5.10;99.90;;;;;;4867413;28;105537;-81
2022/01/12 15:10:07;;;;;;;;;;;;;;;;;;;;;
2022/01/12 15:12:44;;;;;;;29.60;16.92;;;5.20;99.90;;;;;;4843708;29;88657;-80
2022/01/12 15:15:47;;;;;;;27.15;16.70;;;5.10;99.90;;;;;;4843292;28;88216;-82
2022/01/12 15:18:18;;;;;;;26.65;17.23;;;5.10;99.90;;;;;;4843284;29;88071;-80
2022/01/12 15:21:06;;;;;;;24.67;16.13;;;5.00;99.90;;;;;;4899021;28;89244;-81
2022/01/12 15:24:13;;;;;;;;;;;;;;;;;;;;;
2022/01/12 15:26:42;;;;;;;24.13;15.83;;;5.10;99.90;;;;;;4898065;28;87706;-80
2022/01/12 15:29:08;;;;;;;36.83;16.83;;;5.10;99.90;;;;;;4898530;28;88124;-82